createdAt,value
2023-01-22T00:02:30.602Z,6.28
2023-01-22T00:05:04.761Z,5.78
2023-01-22T00:07:38.327Z,5.03
2023-01-22T00:10:14.678Z,5.78
2023-01-22T00:12:48.284Z,5.53
2023-01-22T00:15:22.284Z,6.03
2023-01-22T00:17:55.852Z,5.15
2023-01-22T00:20:29.924Z,5.78
2023-01-22T00:23:03.530Z,4.57
2023-01-22T00:25:38.671Z,4.63
2023-01-22T00:28:13.257Z,6.45
2023-01-22T00:30:46.872Z,5.72
2023-01-22T00:33:21.027Z,6.82
2023-01-22T00:35:54.954Z,6.68
2023-01-22T00:38:28.655Z,5.70
2023-01-22T00:41:05.004Z,6.40
2023-01-22T00:43:40.557Z,6.47
2023-01-22T00:46:16.532Z,7.18
2023-01-22T00:48:51.201Z,6.93
2023-01-22T00:51:24.989Z,6.18
2023-01-22T00:53:58.600Z,7.57
2023-01-22T00:56:34.034Z,6.00
2023-01-22T00:59:10.531Z,5.03
2023-01-22T01:01:44.601Z,6.35
2023-01-22T01:04:18.204Z,5.95
2023-01-22T01:06:51.857Z,7.57
2023-01-22T01:09:25.920Z,5.63
2023-01-22T01:12:01.940Z,5.85
2023-01-22T01:14:35.715Z,5.63
2023-01-22T01:17:10.504Z,5.80
2023-01-22T01:19:44.585Z,6.07
2023-01-22T01:22:18.679Z,6.45
2023-01-22T01:24:53.126Z,5.85
2023-01-22T01:27:31.775Z,5.93
2023-01-22T01:30:06.308Z,7.68
2023-01-22T01:32:41.076Z,6.78
2023-01-22T01:35:15.053Z,5.50
2023-01-22T01:37:49.058Z,7.40
2023-01-22T01:40:22.827Z,5.82
2023-01-22T01:42:58.271Z,6.63
2023-01-22T01:45:33.753Z,6.57
2023-01-22T01:48:13.071Z,6.07
2023-01-22T01:50:52.991Z,6.25
2023-01-22T01:53:27.343Z,6.43
2023-01-22T01:56:03.336Z,4.85
2023-01-22T01:58:41.126Z,6.03
2023-01-22T02:01:17.961Z,5.35
2023-01-22T02:03:52.380Z,6.38
2023-01-22T02:06:26.881Z,5.55
2023-01-22T02:09:01.477Z,7.03
2023-01-22T02:11:35.847Z,6.85
2023-01-22T02:14:15.509Z,6.32
2023-01-22T02:16:49.193Z,6.88
2023-01-22T02:19:23.258Z,6.35
2023-01-22T02:21:58.247Z,6.35
2023-01-22T02:24:34.431Z,6.97
2023-01-22T02:27:09.498Z,8.15
2023-01-22T02:29:43.324Z,7.07
2023-01-22T02:32:18.197Z,6.57
2023-01-22T02:34:52.782Z,7.22
2023-01-22T02:37:27.916Z,6.35
2023-01-22T02:40:02.982Z,7.70
2023-01-22T02:42:37.540Z,7.80
2023-01-22T02:45:12.417Z,6.95
2023-01-22T02:47:46.389Z,7.15
2023-01-22T02:50:20.549Z,7.32
2023-01-22T02:52:55.853Z,7.82
2023-01-22T02:55:29.505Z,7.82
2023-01-22T02:58:04.208Z,7.50
2023-01-22T03:00:39.528Z,9.38
2023-01-22T03:03:15.650Z,8.02
2023-01-22T03:05:51.266Z,8.90
2023-01-22T03:08:27.396Z,8.50
2023-01-22T03:11:01.161Z,9.15
2023-01-22T03:13:51.769Z,7.80
2023-01-22T03:16:43.528Z,7.80
2023-01-22T03:19:37.251Z,8.35
2023-01-22T03:22:15.860Z,7.57
2023-01-22T03:24:52.722Z,8.82
2023-01-22T03:27:31.693Z,7.25
2023-01-22T03:30:06.117Z,8.18
2023-01-22T03:32:42.101Z,7.93
2023-01-22T03:35:17.016Z,7.55
2023-01-22T03:38:07.391Z,8.07
2023-01-22T03:40:42.687Z,7.00
2023-01-22T03:43:16.779Z,7.25
2023-01-22T03:45:51.043Z,7.20
2023-01-22T03:48:26.691Z,7.55
2023-01-22T03:51:06.478Z,7.93
2023-01-22T03:53:40.596Z,8.32
2023-01-22T03:56:17.607Z,8.77
2023-01-22T03:58:52.322Z,7.97
2023-01-22T04:01:28.465Z,8.70
2023-01-22T04:04:03.578Z,7.05
2023-01-22T04:06:38.479Z,7.53
2023-01-22T04:09:12.617Z,8.45
2023-01-22T04:11:54.159Z,7.60
2023-01-22T04:14:27.978Z,7.32
2023-01-22T04:17:04.559Z,7.60
2023-01-22T04:19:56.073Z,8.05
2023-01-22T04:22:51.914Z,7.22
2023-01-22T04:25:26.020Z,8.15
2023-01-22T04:28:01.195Z,7.60
2023-01-22T04:30:35.321Z,7.50
2023-01-22T04:33:27.300Z,7.47
2023-01-22T04:36:14.381Z,6.70
2023-01-22T04:38:49.227Z,6.95
2023-01-22T04:41:22.811Z,6.57
2023-01-22T04:43:58.070Z,6.90
2023-01-22T04:46:32.965Z,7.75
2023-01-22T04:49:07.756Z,7.20
2023-01-22T04:51:42.070Z,7.30
2023-01-22T04:54:15.807Z,6.32
2023-01-22T04:56:49.369Z,6.38
2023-01-22T04:59:25.018Z,6.55
2023-01-22T05:01:58.859Z,6.93
2023-01-22T05:04:32.707Z,5.90
2023-01-22T05:07:06.351Z,6.88
2023-01-22T05:09:40.524Z,6.07
2023-01-22T05:12:14.166Z,5.50
2023-01-22T05:14:50.615Z,6.97
2023-01-22T05:17:24.221Z,6.25
2023-01-22T05:19:57.917Z,6.07
2023-01-22T05:22:32.854Z,6.10
2023-01-22T05:25:07.664Z,5.13
2023-01-22T05:27:42.233Z,5.53
2023-01-22T05:30:23.414Z,7.03
2023-01-22T05:33:22.678Z,5.78
2023-01-22T05:36:00.251Z,6.45
2023-01-22T05:38:34.687Z,5.90
2023-01-22T05:41:08.515Z,6.03
2023-01-22T05:43:45.075Z,7.15
2023-01-22T05:46:26.016Z,7.35
2023-01-22T05:49:06.242Z,6.32
2023-01-22T05:51:40.944Z,6.75
2023-01-22T05:54:14.817Z,6.22
2023-01-22T05:56:50.056Z,5.90
2023-01-22T05:59:24.250Z,6.53
2023-01-22T06:02:04.877Z,6.05
2023-01-22T06:04:40.905Z,5.00
2023-01-22T06:07:24.990Z,5.57
2023-01-22T06:09:59.605Z,5.25
2023-01-22T06:12:33.209Z,6.63
2023-01-22T06:15:07.793Z,5.43
2023-01-22T06:17:43.224Z,5.75
2023-01-22T06:20:17.741Z,5.63
2023-01-22T06:22:52.395Z,6.18
2023-01-22T06:25:25.987Z,5.40
2023-01-22T06:28:12.610Z,5.25
2023-01-22T06:30:46.813Z,5.50
2023-01-22T06:33:21.929Z,6.28
2023-01-22T06:35:56.319Z,5.80
2023-01-22T06:38:30.557Z,5.90
2023-01-22T06:41:06.640Z,6.03
2023-01-22T06:43:40.469Z,6.32
2023-01-22T06:46:14.224Z,7.65
2023-01-22T06:49:12.732Z,6.60
2023-01-22T06:51:46.728Z,7.47
2023-01-22T06:54:38.749Z,7.13
2023-01-22T06:57:12.380Z,8.25
2023-01-22T06:59:46.986Z,6.35
2023-01-22T07:02:21.548Z,7.57
2023-01-22T07:04:56.487Z,6.63
2023-01-22T07:07:30.005Z,7.43
2023-01-22T07:10:03.508Z,6.45
2023-01-22T07:12:37.292Z,5.43
2023-01-22T07:15:11.569Z,5.20
2023-01-22T07:17:45.556Z,5.05
2023-01-22T07:20:21.499Z,5.28
2023-01-22T07:22:59.212Z,5.22
2023-01-22T07:25:33.522Z,5.63
2023-01-22T07:28:08.226Z,5.32
2023-01-22T07:30:43.270Z,5.50
2023-01-22T07:33:17.954Z,5.00
2023-01-22T07:35:57.586Z,8.40
2023-01-22T07:38:31.460Z,6.68
2023-01-22T07:41:14.125Z,5.05
2023-01-22T07:43:56.334Z,5.63
2023-01-22T07:46:30.176Z,6.78
2023-01-22T07:49:03.805Z,6.57
2023-01-22T07:51:39.106Z,7.43
2023-01-22T07:54:12.819Z,6.38
2023-01-22T07:56:46.398Z,9.20
2023-01-22T07:59:20.102Z,7.97
2023-01-22T08:01:55.721Z,6.10
2023-01-22T08:04:29.854Z,5.97
2023-01-22T08:07:04.941Z,5.45
2023-01-22T08:09:38.705Z,6.22
2023-01-22T08:12:12.415Z,5.70
2023-01-22T08:14:46.518Z,6.78
2023-01-22T08:17:20.125Z,9.57
2023-01-22T08:19:53.914Z,5.82
2023-01-22T08:22:28.999Z,5.18
2023-01-22T08:25:02.914Z,5.75
2023-01-22T08:27:36.567Z,8.63
2023-01-22T08:30:12.421Z,8.30
2023-01-22T08:32:46.620Z,19.10
2023-01-22T08:35:20.187Z,12.85
2023-01-22T08:37:55.522Z,10.18
2023-01-22T08:40:31.240Z,9.35
2023-01-22T08:43:05.009Z,11.45
2023-01-22T08:45:39.045Z,8.88
2023-01-22T08:48:12.627Z,5.38
2023-01-22T08:50:46.310Z,5.63
2023-01-22T08:53:21.382Z,6.00
2023-01-22T08:55:55.292Z,6.72
2023-01-22T08:58:29.102Z,5.07
2023-01-22T09:01:02.666Z,5.45
2023-01-22T09:03:36.216Z,4.45
2023-01-22T09:06:10.163Z,4.55
2023-01-22T09:08:45.222Z,3.97
2023-01-22T09:11:18.943Z,4.65
2023-01-22T09:13:55.101Z,4.78
2023-01-22T09:16:29.392Z,4.95
2023-01-22T09:19:03.021Z,4.68
2023-01-22T09:21:37.736Z,6.20
2023-01-22T09:24:12.978Z,5.07
2023-01-22T09:26:46.541Z,4.65
2023-01-22T09:29:20.148Z,4.55
2023-01-22T09:31:53.777Z,4.22
2023-01-22T09:34:27.625Z,4.60
2023-01-22T09:37:05.486Z,4.60
2023-01-22T09:39:40.530Z,6.13
2023-01-22T09:42:19.081Z,5.45
2023-01-22T09:44:57.599Z,5.05
2023-01-22T09:47:37.362Z,4.68
2023-01-22T09:50:18.900Z,5.63
2023-01-22T09:52:54.487Z,4.80
2023-01-22T09:55:32.651Z,4.65
2023-01-22T09:58:11.975Z,6.20
2023-01-22T10:00:50.175Z,14.85
2023-01-22T10:03:28.133Z,13.65
2023-01-22T10:06:06.191Z,8.48
2023-01-22T10:08:53.397Z,8.40
2023-01-22T10:11:28.760Z,8.15
2023-01-22T10:14:07.155Z,7.75
2023-01-22T10:16:40.716Z,5.47
2023-01-22T10:19:21.586Z,7.82
2023-01-22T10:22:00.054Z,8.15
2023-01-22T10:24:33.771Z,7.03
2023-01-22T10:27:16.406Z,7.35
2023-01-22T10:32:32.887Z,5.78
2023-01-22T10:35:08.981Z,5.45
2023-01-22T10:37:47.166Z,5.90
2023-01-22T10:40:24.669Z,6.03
2023-01-22T10:43:05.504Z,6.38
2023-01-22T10:45:39.276Z,4.95
2023-01-22T10:48:19.632Z,5.28
2023-01-22T10:51:03.976Z,7.90
2023-01-22T10:53:39.071Z,11.75
2023-01-22T10:56:13.595Z,10.50
2023-01-22T10:58:49.722Z,9.25
2023-01-22T11:01:31.006Z,8.35
2023-01-22T11:04:13.804Z,6.40
2023-01-22T11:06:51.883Z,4.95
2023-01-22T11:09:32.963Z,6.35
2023-01-22T11:12:15.353Z,6.22
2023-01-22T11:15:05.904Z,6.70
2023-01-22T11:17:44.057Z,6.30
2023-01-22T11:20:23.018Z,6.25
2023-01-22T11:23:06.853Z,5.65
2023-01-22T11:25:45.145Z,6.45
2023-01-22T11:28:29.659Z,5.57
2023-01-22T11:31:30.656Z,6.05
2023-01-22T11:34:46.084Z,6.75
2023-01-22T11:37:22.897Z,6.28
2023-01-22T11:40:22.838Z,6.13
2023-01-22T11:43:24.680Z,6.28
2023-01-22T11:46:13.364Z,4.88
2023-01-22T11:48:59.750Z,5.97
2023-01-22T11:51:37.575Z,5.90
2023-01-22T11:54:26.624Z,7.65
2023-01-22T11:57:16.568Z,8.60
2023-01-22T12:00:05.032Z,7.90
2023-01-22T12:03:16.005Z,7.15
2023-01-22T12:05:57.795Z,6.28
2023-01-22T12:08:43.494Z,6.13
2023-01-22T12:11:34.911Z,10.60
2023-01-22T12:14:28.937Z,7.00
2023-01-22T12:17:13.335Z,4.70
2023-01-22T12:20:14.276Z,4.70
2023-01-22T12:22:53.628Z,6.28
2023-01-22T12:25:37.629Z,5.00
2023-01-22T12:28:17.921Z,5.38
2023-01-22T12:30:57.731Z,6.00
2023-01-22T12:33:38.303Z,6.20
2023-01-22T12:36:17.644Z,6.38
2023-01-22T12:38:55.936Z,5.95
2023-01-22T12:41:45.614Z,7.28
2023-01-22T12:44:29.628Z,5.88
2023-01-22T12:47:10.160Z,5.63
2023-01-22T12:49:48.928Z,7.13
2023-01-22T12:52:46.629Z,5.38
2023-01-22T12:55:30.627Z,5.60
2023-01-22T12:58:05.307Z,5.88
2023-01-22T13:00:40.004Z,5.20
2023-01-22T13:03:31.811Z,5.20
2023-01-22T13:06:20.147Z,4.40
2023-01-22T13:08:55.604Z,4.35
2023-01-22T13:11:32.410Z,4.20
2023-01-22T13:14:19.282Z,6.93
2023-01-22T13:16:56.272Z,6.55
2023-01-22T13:19:40.223Z,7.45
2023-01-22T13:22:18.490Z,6.22
2023-01-22T13:24:55.657Z,5.00
2023-01-22T13:27:32.378Z,5.97
2023-01-22T13:30:10.778Z,5.90
2023-01-22T13:32:44.951Z,4.43
2023-01-22T13:35:20.091Z,4.60
2023-01-22T13:37:53.904Z,4.28
2023-01-22T13:40:36.987Z,5.50
2023-01-22T13:43:21.267Z,4.93
2023-01-22T13:45:56.907Z,6.38
2023-01-22T13:48:30.830Z,5.53
2023-01-22T13:51:18.712Z,5.65
2023-01-22T13:53:54.970Z,5.32
2023-01-22T13:56:30.576Z,5.10
2023-01-22T13:59:16.324Z,4.78
2023-01-22T14:01:50.718Z,4.80
2023-01-22T14:04:37.264Z,4.43
2023-01-22T14:07:17.930Z,5.32
2023-01-22T14:09:52.636Z,4.80
2023-01-22T14:12:30.411Z,3.90
2023-01-22T14:15:14.730Z,4.00
2023-01-22T14:17:50.584Z,5.60
2023-01-22T14:20:24.470Z,6.38
2023-01-22T14:22:58.344Z,5.38
2023-01-22T14:25:32.236Z,5.32
2023-01-22T14:28:07.840Z,6.65
2023-01-22T14:30:41.871Z,8.73
2023-01-22T14:33:21.940Z,6.13
2023-01-22T14:35:57.784Z,5.30
2023-01-22T14:38:31.808Z,7.80
2023-01-22T14:41:06.152Z,6.15
2023-01-22T14:43:41.476Z,5.32
2023-01-22T14:46:15.464Z,6.63
2023-01-22T14:48:49.704Z,6.53
2023-01-22T14:51:23.619Z,6.30
2023-01-22T14:53:58.850Z,7.40
2023-01-22T14:56:36.093Z,8.25
2023-01-22T14:59:11.746Z,7.47
2023-01-22T15:01:45.673Z,12.65
2023-01-22T15:04:19.411Z,11.85
2023-01-22T15:06:53.193Z,11.73
2023-01-22T15:09:27.131Z,10.95
2023-01-22T15:12:00.999Z,10.60
2023-01-22T15:14:36.209Z,8.90
2023-01-22T15:17:09.866Z,8.63
2023-01-22T15:19:43.514Z,7.32
2023-01-22T15:22:17.755Z,7.03
2023-01-22T15:24:51.343Z,6.50
2023-01-22T15:27:24.960Z,6.45
2023-01-22T15:30:00.047Z,7.15
2023-01-22T15:32:33.990Z,6.50
2023-01-22T15:35:08.412Z,7.75
2023-01-22T15:37:42.337Z,8.07
2023-01-22T15:40:19.936Z,6.32
2023-01-22T15:42:53.922Z,7.32
2023-01-22T15:45:30.734Z,6.18
2023-01-22T15:48:04.597Z,5.25
2023-01-22T15:50:38.272Z,6.10
2023-01-22T15:53:12.000Z,6.57
2023-01-22T15:55:50.470Z,9.52
2023-01-22T15:58:24.491Z,10.63
2023-01-22T16:01:00.272Z,12.05
2023-01-22T16:03:34.342Z,10.88
2023-01-22T16:06:12.980Z,30.83
2023-01-22T16:09:07.513Z,11.82
2023-01-22T16:11:41.311Z,49.80
2023-01-22T16:14:16.117Z,12.98
2023-01-22T16:16:51.422Z,8.40
2023-01-22T16:19:25.281Z,8.23
2023-01-22T16:21:58.975Z,6.60
2023-01-22T16:24:32.713Z,5.47
2023-01-22T16:27:07.974Z,6.10
2023-01-22T16:29:41.990Z,6.00
2023-01-22T16:32:17.232Z,6.63
2023-01-22T16:34:52.335Z,5.78
2023-01-22T16:37:26.045Z,5.88
2023-01-22T16:39:59.906Z,6.53
2023-01-22T16:42:34.729Z,6.90
2023-01-22T16:45:09.237Z,6.63
2023-01-22T16:47:45.248Z,6.75
2023-01-22T16:50:21.010Z,6.72
2023-01-22T16:52:56.723Z,7.10
2023-01-22T16:55:30.914Z,6.90
2023-01-22T16:58:04.785Z,7.43
2023-01-22T17:00:38.896Z,7.43
2023-01-22T17:03:16.706Z,7.85
2023-01-22T17:05:50.358Z,9.23
2023-01-22T17:08:24.090Z,9.20
2023-01-22T17:10:58.093Z,8.10
2023-01-22T17:13:32.749Z,9.38
2023-01-22T17:16:32.239Z,10.68
2023-01-22T17:19:07.659Z,9.50
2023-01-22T17:21:46.429Z,10.45
2023-01-22T17:24:23.714Z,10.18
2023-01-22T17:27:02.344Z,9.98
2023-01-22T17:29:37.589Z,10.63
2023-01-22T17:32:13.010Z,9.52
2023-01-22T17:34:50.814Z,8.20
2023-01-22T17:37:26.013Z,9.07
2023-01-22T17:40:00.348Z,10.35
2023-01-22T17:42:34.199Z,8.63
2023-01-22T17:45:09.620Z,8.63
2023-01-22T17:47:45.413Z,10.27
2023-01-22T17:50:24.733Z,12.73
2023-01-22T17:52:58.591Z,50.15
2023-01-22T17:55:32.344Z,40.45
2023-01-22T17:58:06.048Z,28.25
2023-01-22T18:00:42.227Z,21.13
2023-01-22T18:03:28.459Z,16.27
2023-01-22T18:06:06.433Z,15.60
2023-01-22T18:08:48.463Z,16.75
2023-01-22T18:11:42.844Z,14.05
2023-01-22T18:14:25.584Z,13.18
2023-01-22T18:17:01.613Z,11.02
2023-01-22T18:19:54.041Z,10.48
2023-01-22T18:22:29.406Z,9.45
2023-01-22T18:25:03.458Z,11.60
2023-01-22T18:27:43.389Z,9.88
2023-01-22T18:30:18.417Z,10.63
2023-01-22T18:32:52.431Z,9.40
2023-01-22T18:35:27.252Z,19.42
2023-01-22T18:38:03.199Z,13.73
2023-01-22T18:40:37.877Z,10.38
2023-01-22T18:43:12.582Z,9.63
2023-01-22T18:45:46.524Z,10.70
2023-01-22T18:48:21.534Z,9.98
2023-01-22T18:50:57.076Z,12.30
2023-01-22T18:53:32.811Z,10.25
2023-01-22T18:56:08.215Z,17.23
2023-01-22T18:58:44.719Z,12.85
2023-01-22T19:01:21.471Z,10.80
2023-01-22T19:03:58.414Z,12.57
2023-01-22T19:06:40.060Z,23.60
2023-01-22T19:09:17.415Z,14.33
2023-01-22T19:11:53.455Z,14.65
2023-01-22T19:14:29.180Z,12.25
2023-01-22T19:17:07.654Z,11.85
2023-01-22T19:19:45.288Z,12.68
2023-01-22T19:22:19.320Z,12.52
2023-01-22T19:24:58.864Z,13.80
2023-01-22T19:27:32.740Z,12.48
2023-01-22T19:30:08.160Z,12.18
2023-01-22T19:35:50.052Z,11.65
2023-01-22T19:38:25.016Z,12.25
2023-01-22T19:41:01.841Z,13.25
2023-01-22T19:43:36.262Z,12.35
2023-01-22T19:46:14.344Z,11.50
2023-01-22T19:48:51.051Z,12.10
2023-01-22T19:51:27.007Z,10.48
2023-01-22T19:54:01.825Z,10.95
2023-01-22T19:56:40.135Z,12.30
2023-01-22T19:59:16.454Z,10.40
2023-01-22T20:01:53.980Z,12.50
2023-01-22T20:04:31.913Z,10.68
2023-01-22T20:07:07.170Z,10.93
2023-01-22T20:09:41.667Z,10.07
2023-01-22T20:12:17.613Z,10.73
2023-01-22T20:14:52.076Z,10.52
2023-01-22T20:17:26.345Z,13.40
2023-01-22T20:20:00.826Z,10.75
2023-01-22T20:22:35.058Z,9.48
2023-01-22T20:25:10.886Z,10.00
2023-01-22T20:27:47.562Z,11.23
2023-01-22T20:30:21.734Z,11.88
2023-01-22T20:32:57.618Z,15.15
2023-01-22T20:35:32.228Z,11.18
2023-01-22T20:38:06.474Z,12.93
2023-01-22T20:40:42.220Z,13.00
2023-01-22T20:43:19.176Z,11.45
2023-01-22T20:46:01.922Z,11.07
2023-01-22T20:51:15.417Z,12.00
2023-01-22T20:53:53.816Z,12.55
2023-01-22T20:56:32.983Z,13.63
2023-01-22T20:59:11.495Z,19.85
2023-01-22T21:01:48.614Z,15.73
2023-01-22T21:04:23.562Z,12.32
2023-01-22T21:06:58.425Z,11.85
2023-01-22T21:09:32.878Z,16.77
2023-01-22T21:12:07.369Z,13.70
2023-01-22T21:14:43.195Z,13.07
2023-01-22T21:17:19.043Z,12.88
2023-01-22T21:19:55.399Z,13.15
2023-01-22T21:22:32.183Z,14.18
2023-01-22T21:25:06.623Z,12.93
2023-01-22T21:27:40.390Z,15.88
2023-01-22T21:30:16.425Z,12.60
2023-01-22T21:32:52.550Z,10.90
2023-01-22T21:35:26.639Z,12.70
2023-01-22T21:38:00.433Z,12.70
2023-01-22T21:40:34.887Z,13.40
2023-01-22T21:43:27.402Z,13.25
2023-01-22T21:46:20.292Z,10.77
2023-01-22T21:48:57.325Z,8.57
2023-01-22T21:51:32.373Z,13.35
2023-01-22T21:54:06.387Z,14.90
2023-01-22T21:56:40.236Z,12.32
2023-01-22T21:59:14.234Z,14.23
2023-01-22T22:01:50.485Z,14.65
2023-01-22T22:04:26.013Z,15.40
2023-01-22T22:07:00.120Z,9.90
2023-01-22T22:09:34.126Z,15.80
2023-01-22T22:12:08.446Z,15.75
2023-01-22T22:14:42.147Z,16.48
2023-01-22T22:17:17.246Z,9.88
2023-01-22T22:19:50.836Z,9.73
2023-01-22T22:22:25.067Z,12.75
2023-01-22T22:24:58.870Z,11.65
2023-01-22T22:27:32.643Z,14.00
2023-01-22T22:30:07.182Z,9.57
2023-01-22T22:32:42.263Z,12.65
2023-01-22T22:35:16.135Z,12.65
2023-01-22T22:37:49.902Z,12.07
2023-01-22T22:40:23.945Z,11.23
2023-01-22T22:42:57.693Z,15.13
2023-01-22T22:45:33.255Z,11.57
2023-01-22T22:48:08.614Z,9.20
2023-01-22T22:50:43.375Z,11.20
2023-01-22T22:53:17.353Z,11.35
2023-01-22T22:55:51.048Z,10.70
2023-01-22T22:58:24.694Z,10.70
2023-01-22T23:00:58.548Z,11.63
2023-01-22T23:03:35.164Z,10.10
2023-01-22T23:06:12.108Z,10.57
2023-01-22T23:08:52.456Z,10.35
2023-01-22T23:11:28.289Z,9.38
2023-01-22T23:14:02.991Z,10.18
2023-01-22T23:16:39.071Z,9.25
2023-01-22T23:19:17.866Z,9.57
2023-01-22T23:21:54.466Z,10.02
2023-01-22T23:24:28.938Z,10.85
2023-01-22T23:27:02.585Z,9.73
2023-01-22T23:29:36.506Z,10.68
2023-01-22T23:32:10.151Z,9.80
2023-01-22T23:34:45.309Z,11.65
2023-01-22T23:37:18.865Z,7.13
2023-01-22T23:39:52.503Z,8.75
2023-01-22T23:42:26.167Z,8.60
2023-01-22T23:45:11.946Z,8.90
2023-01-22T23:47:46.708Z,7.65
2023-01-22T23:50:22.084Z,7.85
2023-01-22T23:57:22.625Z,7.90
2023-01-22T23:59:56.209Z,9.27
